createdAt,value
2022-10-06T00:02:19.204Z,98.60
2022-10-06T00:04:46.497Z,98.49
2022-10-06T00:07:13.835Z,98.64
2022-10-06T00:09:40.199Z,98.52
2022-10-06T00:12:06.942Z,98.90
2022-10-06T00:14:33.338Z,98.94
2022-10-06T00:16:59.855Z,99.19
2022-10-06T00:19:26.278Z,99.26
2022-10-06T00:21:53.249Z,99.33
2022-10-06T00:24:19.657Z,99.27
2022-10-06T00:26:47.284Z,99.33
2022-10-06T00:29:14.797Z,98.98
2022-10-06T00:31:41.781Z,99.16
2022-10-06T00:34:08.171Z,99.04
2022-10-06T00:36:34.619Z,98.83
2022-10-06T00:39:01.284Z,98.68
2022-10-06T00:41:28.686Z,98.53
2022-10-06T00:43:57.633Z,98.13
2022-10-06T00:46:24.247Z,98.05
2022-10-06T00:48:59.692Z,97.97
2022-10-06T00:51:27.264Z,97.92
2022-10-06T00:53:53.710Z,97.97
2022-10-06T00:56:20.137Z,98.05
2022-10-06T00:58:46.549Z,98.04
2022-10-06T01:01:13.160Z,97.87
2022-10-06T01:03:45.109Z,97.82
2022-10-06T01:06:11.705Z,97.66
2022-10-06T01:08:39.088Z,97.46
2022-10-06T01:11:06.663Z,97.44
2022-10-06T01:13:33.282Z,97.82
2022-10-06T01:16:09.251Z,97.73
2022-10-06T01:18:39.345Z,97.62
2022-10-06T01:21:17.156Z,98.03
2022-10-06T01:23:43.714Z,97.84
2022-10-06T01:26:11.416Z,97.60
2022-10-06T01:28:39.335Z,97.53
2022-10-06T01:31:07.788Z,97.51
2022-10-06T01:33:34.211Z,97.62
2022-10-06T01:36:00.632Z,97.68
2022-10-06T01:38:27.512Z,97.56
2022-10-06T01:40:54.296Z,97.75
2022-10-06T01:43:21.345Z,97.84
2022-10-06T01:45:58.225Z,97.65
2022-10-06T01:48:25.652Z,97.92
2022-10-06T01:50:52.457Z,97.70
2022-10-06T01:53:18.862Z,98.05
2022-10-06T01:55:46.361Z,98.06
2022-10-06T01:58:13.080Z,98.04
2022-10-06T02:00:40.412Z,97.88
2022-10-06T02:03:07.674Z,97.80
2022-10-06T02:05:34.827Z,97.74
2022-10-06T02:08:02.790Z,97.79
2022-10-06T02:10:29.192Z,97.70
2022-10-06T02:12:55.566Z,97.77
2022-10-06T02:15:21.975Z,97.83
2022-10-06T02:17:48.513Z,97.66
2022-10-06T02:20:15.367Z,97.70
2022-10-06T02:22:43.711Z,97.76
2022-10-06T02:25:11.295Z,97.65
2022-10-06T02:27:38.264Z,97.68
2022-10-06T02:30:06.695Z,97.64
2022-10-06T02:32:38.914Z,97.70
2022-10-06T02:35:07.701Z,97.60
2022-10-06T02:37:34.426Z,97.73
2022-10-06T02:40:00.773Z,97.77
2022-10-06T02:42:27.373Z,97.83
2022-10-06T02:44:53.931Z,97.71
2022-10-06T02:47:22.218Z,97.82
2022-10-06T02:49:48.543Z,97.98
2022-10-06T02:52:15.451Z,98.00
2022-10-06T02:54:42.399Z,98.15
2022-10-06T02:57:09.394Z,98.04
2022-10-06T02:59:36.409Z,97.96
2022-10-06T03:02:02.983Z,97.92
2022-10-06T03:04:29.934Z,97.80
2022-10-06T03:06:56.289Z,98.00
2022-10-06T03:09:22.708Z,98.03
2022-10-06T03:11:49.092Z,97.94
2022-10-06T03:14:19.253Z,97.90
2022-10-06T03:16:48.118Z,98.02
2022-10-06T03:19:14.495Z,97.98
2022-10-06T03:21:43.059Z,97.98
2022-10-06T03:24:10.309Z,98.14
2022-10-06T03:26:39.559Z,98.02
2022-10-06T03:29:11.141Z,98.11
2022-10-06T03:31:38.886Z,98.18
2022-10-06T03:34:05.819Z,98.07
2022-10-06T03:36:33.904Z,98.07
2022-10-06T03:39:02.617Z,98.33
2022-10-06T03:41:31.529Z,98.35
2022-10-06T03:43:59.542Z,98.14
2022-10-06T03:46:28.783Z,98.12
2022-10-06T03:48:57.262Z,98.19
2022-10-06T03:51:29.996Z,98.32
2022-10-06T03:53:57.146Z,98.20
2022-10-06T03:56:42.652Z,98.29
2022-10-06T03:59:11.523Z,98.24
2022-10-06T04:01:43.617Z,98.27
2022-10-06T04:04:11.232Z,98.16
2022-10-06T04:06:39.767Z,98.33
2022-10-06T04:09:14.759Z,98.34
2022-10-06T04:11:42.854Z,98.35
2022-10-06T04:14:12.947Z,98.39
2022-10-06T04:16:42.685Z,98.33
2022-10-06T04:19:11.038Z,98.17
2022-10-06T04:21:39.051Z,98.35
2022-10-06T04:24:07.085Z,98.42
2022-10-06T04:26:36.615Z,98.49
2022-10-06T04:29:03.212Z,98.53
2022-10-06T04:31:31.727Z,98.66
2022-10-06T04:33:59.835Z,98.62
2022-10-06T04:36:29.085Z,98.75
2022-10-06T04:38:58.778Z,98.63
2022-10-06T04:41:28.005Z,98.77
2022-10-06T04:43:55.575Z,98.63
2022-10-06T04:46:42.258Z,98.69
2022-10-06T04:49:13.344Z,98.69
2022-10-06T04:51:44.444Z,98.77
2022-10-06T04:54:10.842Z,98.75
2022-10-06T04:56:37.208Z,98.83
2022-10-06T05:01:35.645Z,98.87
2022-10-06T05:04:03.879Z,98.76
2022-10-06T05:06:31.446Z,98.88
2022-10-06T05:09:21.884Z,98.86
2022-10-06T05:11:48.236Z,98.88
2022-10-06T05:14:14.603Z,98.75
2022-10-06T05:16:42.896Z,98.88
2022-10-06T05:19:09.298Z,98.88
2022-10-06T05:21:36.140Z,98.96
2022-10-06T05:24:03.440Z,98.90
2022-10-06T05:26:31.682Z,98.93
2022-10-06T05:28:58.356Z,99.17
2022-10-06T05:31:27.720Z,99.03
2022-10-06T05:33:55.280Z,99.13
2022-10-06T05:36:30.353Z,99.12
2022-10-06T05:38:57.427Z,99.04
2022-10-06T05:41:26.412Z,99.17
2022-10-06T05:43:53.208Z,99.08
2022-10-06T05:46:30.448Z,99.30
2022-10-06T05:48:59.179Z,99.25
2022-10-06T05:51:30.947Z,99.32
2022-10-06T05:53:59.074Z,99.25
2022-10-06T05:56:33.291Z,99.46
2022-10-06T05:59:00.530Z,99.45
2022-10-06T06:01:35.279Z,99.53
2022-10-06T06:04:03.602Z,99.49
2022-10-06T06:06:37.888Z,99.19
2022-10-06T06:09:07.419Z,99.56
2022-10-06T06:11:35.687Z,99.67
2022-10-06T06:14:08.512Z,99.31
2022-10-06T06:16:36.923Z,98.77
2022-10-06T06:19:03.325Z,97.42
2022-10-06T06:21:30.043Z,94.22
2022-10-06T06:23:56.545Z,89.04
2022-10-06T06:26:28.666Z,84.72
2022-10-06T06:29:00.124Z,81.80
2022-10-06T06:31:29.745Z,78.85
2022-10-06T06:33:57.850Z,76.13
2022-10-06T06:36:25.696Z,74.08
2022-10-06T06:38:56.857Z,71.77
2022-10-06T06:41:27.105Z,69.56
2022-10-06T06:43:54.039Z,68.55
2022-10-06T06:46:24.839Z,67.28
2022-10-06T06:48:52.585Z,65.78
2022-10-06T06:51:24.154Z,64.63
2022-10-06T06:53:51.653Z,62.84
2022-10-06T06:56:18.901Z,62.06
2022-10-06T06:58:47.399Z,61.41
2022-10-06T07:01:17.210Z,60.07
2022-10-06T07:04:03.376Z,59.53
2022-10-06T07:06:31.055Z,58.37
2022-10-06T07:08:59.408Z,57.61
2022-10-06T07:11:32.003Z,57.08
2022-10-06T07:14:07.053Z,56.55
2022-10-06T07:16:52.557Z,56.20
2022-10-06T07:19:39.965Z,56.14
2022-10-06T07:22:28.094Z,55.25
2022-10-06T07:25:07.909Z,54.87
2022-10-06T07:27:43.330Z,54.89
2022-10-06T07:30:19.183Z,54.92
2022-10-06T07:32:47.238Z,54.94
2022-10-06T07:35:14.119Z,54.05
2022-10-06T07:37:40.707Z,54.55
2022-10-06T07:40:08.930Z,54.86
2022-10-06T07:42:48.091Z,54.60
2022-10-06T07:45:34.273Z,54.83
2022-10-06T07:48:01.983Z,59.86
2022-10-06T07:50:28.723Z,63.76
2022-10-06T07:52:55.097Z,65.96
2022-10-06T07:55:21.648Z,68.31
2022-10-06T07:57:50.871Z,69.37
2022-10-06T08:00:20.875Z,70.57
2022-10-06T08:02:47.343Z,71.34
2022-10-06T08:05:14.544Z,72.23
2022-10-06T08:07:41.180Z,72.84
2022-10-06T08:10:07.806Z,73.46
2022-10-06T08:12:34.376Z,74.21
2022-10-06T08:15:07.073Z,74.88
2022-10-06T08:17:38.313Z,74.62
2022-10-06T08:20:07.567Z,74.91
2022-10-06T08:22:36.032Z,74.67
2022-10-06T08:25:07.322Z,75.45
2022-10-06T08:27:35.641Z,75.46
2022-10-06T08:30:04.437Z,75.44
2022-10-06T08:32:32.100Z,75.70
2022-10-06T08:34:58.987Z,75.50
2022-10-06T08:37:27.187Z,75.51
2022-10-06T08:39:54.553Z,74.95
2022-10-06T08:42:42.191Z,75.07
2022-10-06T08:45:38.865Z,74.36
2022-10-06T08:48:19.455Z,74.86
2022-10-06T08:51:23.901Z,75.63
2022-10-06T08:54:08.155Z,75.33
2022-10-06T08:56:51.919Z,74.28
2022-10-06T08:59:18.273Z,74.01
2022-10-06T09:01:47.784Z,75.29
2022-10-06T09:04:23.187Z,74.77
2022-10-06T09:07:05.513Z,73.73
2022-10-06T09:09:56.215Z,74.03
2022-10-06T09:12:54.599Z,74.99
2022-10-06T09:15:48.114Z,74.56
2022-10-06T09:18:22.579Z,74.49
2022-10-06T09:21:06.462Z,74.86
2022-10-06T09:23:50.460Z,73.87
2022-10-06T09:26:29.202Z,74.62
2022-10-06T09:28:56.606Z,73.43
2022-10-06T09:31:25.876Z,72.41
2022-10-06T09:33:55.277Z,72.36
2022-10-06T09:36:22.194Z,72.89
2022-10-06T09:38:53.885Z,73.92
2022-10-06T09:41:49.819Z,73.53
2022-10-06T09:44:29.338Z,73.17
2022-10-06T09:46:55.671Z,72.03
2022-10-06T09:49:26.625Z,71.74
2022-10-06T09:52:16.187Z,71.62
2022-10-06T09:54:43.625Z,70.52
2022-10-06T09:57:21.381Z,70.54
2022-10-06T09:59:48.610Z,69.39
2022-10-06T10:02:30.521Z,69.91
2022-10-06T10:04:57.560Z,68.90
2022-10-06T10:07:26.988Z,70.78
2022-10-06T10:10:10.211Z,69.20
2022-10-06T10:12:36.608Z,70.09
2022-10-06T10:15:22.849Z,70.41
2022-10-06T10:17:52.075Z,70.94
2022-10-06T10:20:24.551Z,70.04
2022-10-06T10:22:59.511Z,68.89
2022-10-06T10:25:46.023Z,69.03
2022-10-06T10:28:56.398Z,69.16
2022-10-06T10:31:50.578Z,69.39
2022-10-06T10:34:38.314Z,66.76
2022-10-06T10:37:12.222Z,64.88
2022-10-06T10:40:07.860Z,64.73
2022-10-06T10:42:40.866Z,64.85
2022-10-06T10:45:22.572Z,63.61
2022-10-06T10:47:49.300Z,61.27
2022-10-06T10:50:30.751Z,59.70
2022-10-06T10:53:33.005Z,61.62
2022-10-06T10:56:00.452Z,58.10
2022-10-06T10:58:33.690Z,58.89
2022-10-06T11:01:08.251Z,58.50
2022-10-06T11:03:34.662Z,60.33
2022-10-06T11:06:30.292Z,59.47
2022-10-06T11:09:55.235Z,59.38
2022-10-06T11:12:54.234Z,59.27
2022-10-06T11:15:32.081Z,58.59
2022-10-06T11:18:22.292Z,59.75
2022-10-06T11:20:55.914Z,56.95
2022-10-06T11:23:45.263Z,57.39
2022-10-06T11:26:48.920Z,59.50
2022-10-06T11:29:37.887Z,59.98
2022-10-06T11:32:46.442Z,59.97
2022-10-06T11:35:17.614Z,59.80
2022-10-06T11:38:20.333Z,58.49
2022-10-06T11:40:58.798Z,57.60
2022-10-06T11:43:43.876Z,58.70
2022-10-06T11:46:13.341Z,58.78
2022-10-06T11:48:40.511Z,58.97
2022-10-06T11:51:25.220Z,57.04
2022-10-06T11:53:52.945Z,56.75
2022-10-06T11:56:19.315Z,57.31
2022-10-06T11:58:51.805Z,56.56
2022-10-06T12:01:30.594Z,57.76
2022-10-06T12:04:09.143Z,54.08
2022-10-06T12:06:44.766Z,53.70
2022-10-06T12:09:31.768Z,55.30
2022-10-06T12:12:23.027Z,54.34
2022-10-06T12:18:04.976Z,55.94
2022-10-06T12:21:06.215Z,55.79
2022-10-06T12:23:48.422Z,56.62
2022-10-06T12:26:31.702Z,57.42
2022-10-06T12:29:20.590Z,57.04
2022-10-06T12:32:14.633Z,59.16
2022-10-06T12:35:08.266Z,58.03
2022-10-06T12:37:54.597Z,55.32
2022-10-06T12:40:40.610Z,55.67
2022-10-06T12:43:19.268Z,56.31
2022-10-06T12:45:59.534Z,55.04
2022-10-06T12:49:04.147Z,56.53
2022-10-06T12:51:41.344Z,54.30
2022-10-06T12:54:19.326Z,55.31
2022-10-06T12:56:58.696Z,53.71
2022-10-06T12:59:32.093Z,54.65
2022-10-06T13:02:01.459Z,55.15
2022-10-06T13:04:42.968Z,55.06
2022-10-06T13:07:57.384Z,55.32
2022-10-06T13:10:23.998Z,53.43
2022-10-06T13:12:52.130Z,54.41
2022-10-06T13:15:25.270Z,54.54
2022-10-06T13:18:12.945Z,55.19
2022-10-06T13:20:42.886Z,55.81
2022-10-06T13:23:11.810Z,56.61
2022-10-06T13:25:46.389Z,57.04
2022-10-06T13:28:34.323Z,55.22
2022-10-06T13:31:11.758Z,54.40
2022-10-06T13:33:44.273Z,55.63
2022-10-06T13:36:12.347Z,54.27
2022-10-06T13:38:39.861Z,54.54
2022-10-06T13:41:28.106Z,55.34
2022-10-06T13:43:56.148Z,55.32
2022-10-06T13:46:26.587Z,55.76
2022-10-06T13:48:59.533Z,56.63
2022-10-06T13:52:04.650Z,56.55
2022-10-06T13:54:53.852Z,56.08
2022-10-06T13:57:38.630Z,54.50
2022-10-06T14:00:36.747Z,53.90
2022-10-06T14:03:05.857Z,52.65
2022-10-06T14:05:40.919Z,51.75
2022-10-06T14:08:10.190Z,51.84
2022-10-06T14:10:51.680Z,53.50
2022-10-06T14:13:21.695Z,52.16
2022-10-06T14:15:50.972Z,52.76
2022-10-06T14:18:42.749Z,53.54
2022-10-06T14:21:28.760Z,53.80
2022-10-06T14:23:56.184Z,51.46
2022-10-06T14:26:28.669Z,54.26
2022-10-06T14:28:56.105Z,54.93
2022-10-06T14:31:25.839Z,53.78
2022-10-06T14:33:54.298Z,54.33
2022-10-06T14:36:36.310Z,53.07
2022-10-06T14:39:04.969Z,54.39
2022-10-06T14:41:32.037Z,53.82
2022-10-06T14:44:01.823Z,53.60
2022-10-06T14:46:29.888Z,55.89
2022-10-06T14:48:57.582Z,55.00
2022-10-06T14:51:26.001Z,54.49
2022-10-06T14:53:54.295Z,54.71
2022-10-06T14:56:36.176Z,54.63
2022-10-06T14:59:04.937Z,53.90
2022-10-06T15:01:33.318Z,54.21
2022-10-06T15:04:02.323Z,55.71
2022-10-06T15:06:48.010Z,56.40
2022-10-06T15:09:14.329Z,57.00
2022-10-06T15:11:41.270Z,56.44
2022-10-06T15:14:11.485Z,56.83
2022-10-06T15:16:40.706Z,57.56
2022-10-06T15:19:07.300Z,57.26
2022-10-06T15:21:34.179Z,56.85
2022-10-06T15:24:04.212Z,57.82
2022-10-06T15:26:49.527Z,58.30
2022-10-06T15:29:16.927Z,58.01
2022-10-06T15:31:52.895Z,58.62
2022-10-06T15:34:25.579Z,58.05
2022-10-06T15:36:53.367Z,58.16
2022-10-06T15:39:22.048Z,57.43
2022-10-06T15:41:48.520Z,56.85
2022-10-06T15:44:15.825Z,57.97
2022-10-06T15:46:44.801Z,57.93
2022-10-06T15:49:21.400Z,57.50
2022-10-06T15:52:03.603Z,58.90
2022-10-06T15:54:39.334Z,57.89
2022-10-06T15:57:11.601Z,57.52
2022-10-06T15:59:40.698Z,58.35
2022-10-06T16:02:14.394Z,58.68
2022-10-06T16:04:41.940Z,58.68
2022-10-06T16:07:14.123Z,59.00
2022-10-06T16:09:43.677Z,58.63
2022-10-06T16:12:13.873Z,59.85
2022-10-06T16:14:40.191Z,60.77
2022-10-06T16:17:07.667Z,61.45
2022-10-06T16:19:36.718Z,61.50
2022-10-06T16:22:05.053Z,61.69
2022-10-06T16:24:31.494Z,61.40
2022-10-06T16:26:59.702Z,60.86
2022-10-06T16:29:27.583Z,60.96
2022-10-06T16:31:54.106Z,62.06
2022-10-06T16:34:20.598Z,62.41
2022-10-06T16:36:46.927Z,62.53
2022-10-06T16:39:15.910Z,63.05
2022-10-06T16:41:42.908Z,63.65
2022-10-06T16:44:09.327Z,63.74
2022-10-06T16:46:35.762Z,64.78
2022-10-06T16:49:03.159Z,64.85
2022-10-06T16:58:45.729Z,65.99
2022-10-06T17:01:13.748Z,66.62
2022-10-06T17:03:41.126Z,67.59
2022-10-06T17:06:11.188Z,67.78
2022-10-06T17:08:38.530Z,68.54
2022-10-06T17:11:07.239Z,69.07
2022-10-06T17:13:35.464Z,68.98
2022-10-06T17:16:08.960Z,69.46
2022-10-06T17:18:36.051Z,70.07
2022-10-06T17:21:25.793Z,69.96
2022-10-06T17:23:58.238Z,70.36
2022-10-06T17:26:27.487Z,70.51
2022-10-06T17:29:06.094Z,70.74
2022-10-06T17:31:41.712Z,71.12
2022-10-06T17:34:12.019Z,71.90
2022-10-06T17:36:39.795Z,71.79
2022-10-06T17:39:08.250Z,72.20
2022-10-06T17:41:36.631Z,72.33
2022-10-06T17:44:05.971Z,72.82
2022-10-06T17:46:37.656Z,73.15
2022-10-06T17:49:09.889Z,73.40
2022-10-06T17:51:40.667Z,73.59
2022-10-06T17:54:12.258Z,73.59
2022-10-06T17:56:39.290Z,73.84
2022-10-06T17:59:08.591Z,74.06
2022-10-06T18:01:35.720Z,74.35
2022-10-06T18:04:05.004Z,74.36
2022-10-06T18:06:34.873Z,74.78
2022-10-06T18:09:02.668Z,75.08
2022-10-06T18:11:35.691Z,75.29
2022-10-06T18:14:24.101Z,75.30
2022-10-06T18:16:56.257Z,75.64
2022-10-06T18:19:30.136Z,76.00
2022-10-06T18:22:02.761Z,76.25
2022-10-06T18:24:31.216Z,76.55
2022-10-06T18:27:00.113Z,76.63
2022-10-06T18:29:30.361Z,76.85
2022-10-06T18:32:09.464Z,76.97
2022-10-06T18:37:30.723Z,77.33
2022-10-06T18:39:57.136Z,77.76
2022-10-06T18:42:24.059Z,78.02
2022-10-06T18:45:09.230Z,78.29
2022-10-06T18:47:54.016Z,78.26
2022-10-06T18:50:20.619Z,78.51
2022-10-06T18:52:46.985Z,78.86
2022-10-06T18:55:13.654Z,78.84
2022-10-06T18:57:40.836Z,79.08
2022-10-06T19:00:09.247Z,79.10
2022-10-06T19:02:35.655Z,78.93
2022-10-06T19:05:02.301Z,79.31
2022-10-06T19:07:30.625Z,79.90
2022-10-06T19:09:57.040Z,79.92
2022-10-06T19:12:23.467Z,80.22
2022-10-06T19:14:50.304Z,80.40
2022-10-06T19:17:16.729Z,80.47
2022-10-06T19:19:51.257Z,80.64
2022-10-06T19:22:19.898Z,80.79
2022-10-06T19:24:48.689Z,80.92
2022-10-06T19:27:20.561Z,81.18
2022-10-06T19:29:52.998Z,81.33
2022-10-06T19:32:23.445Z,81.51
2022-10-06T19:34:49.859Z,81.51
2022-10-06T19:37:16.897Z,81.76
2022-10-06T19:39:46.155Z,82.10
2022-10-06T19:42:33.160Z,82.24
2022-10-06T19:44:59.821Z,82.84
2022-10-06T19:47:27.222Z,83.13
2022-10-06T19:49:58.325Z,83.18
2022-10-06T19:52:26.231Z,83.19
2022-10-06T19:54:52.565Z,83.06
2022-10-06T19:57:18.907Z,83.04
2022-10-06T19:59:45.447Z,82.99
2022-10-06T20:02:12.017Z,82.88
2022-10-06T20:04:39.522Z,83.55
2022-10-06T20:07:05.977Z,83.70
2022-10-06T20:09:32.488Z,83.97
2022-10-06T20:12:00.095Z,84.24
2022-10-06T20:14:26.695Z,84.44
2022-10-06T20:16:55.282Z,84.38
2022-10-06T20:19:22.069Z,84.63
2022-10-06T20:21:48.922Z,84.99
2022-10-06T20:24:24.651Z,85.44
2022-10-06T20:26:52.251Z,85.21
2022-10-06T20:29:21.724Z,84.96
2022-10-06T20:31:51.188Z,85.08
2022-10-06T20:34:21.361Z,84.99
2022-10-06T20:36:51.887Z,85.45
2022-10-06T20:39:41.829Z,85.55
2022-10-06T20:42:13.872Z,86.42
2022-10-06T20:44:41.144Z,86.67
2022-10-06T20:47:08.834Z,86.88
2022-10-06T20:49:35.259Z,86.86
2022-10-06T20:52:02.721Z,86.98
2022-10-06T20:54:34.842Z,87.40
2022-10-06T20:57:03.904Z,87.51
2022-10-06T20:59:31.312Z,87.72
2022-10-06T21:01:59.975Z,87.51
2022-10-06T21:04:32.487Z,87.91
2022-10-06T21:06:58.945Z,87.62
2022-10-06T21:09:28.175Z,87.84
2022-10-06T21:11:54.544Z,87.60
2022-10-06T21:14:21.020Z,87.36
2022-10-06T21:16:50.539Z,87.35
2022-10-06T21:19:19.190Z,87.59
2022-10-06T21:21:51.732Z,87.71
2022-10-06T21:24:18.567Z,87.95
2022-10-06T21:26:45.036Z,88.38
2022-10-06T21:29:14.034Z,88.25
2022-10-06T21:31:41.402Z,87.99
2022-10-06T21:34:07.951Z,88.26
2022-10-06T21:36:34.368Z,88.56
2022-10-06T21:39:01.616Z,88.87
2022-10-06T21:41:30.697Z,89.10
2022-10-06T21:44:17.400Z,89.29
2022-10-06T21:46:55.378Z,89.77
2022-10-06T21:49:23.728Z,89.82
2022-10-06T21:51:52.536Z,90.01
2022-10-06T21:54:20.103Z,90.13
2022-10-06T21:56:46.855Z,90.74
2022-10-06T21:59:13.342Z,91.10
2022-10-06T22:01:42.296Z,91.23
2022-10-06T22:04:09.454Z,91.58
2022-10-06T22:06:36.858Z,91.60
2022-10-06T22:09:05.950Z,91.74
2022-10-06T22:11:35.308Z,92.14
2022-10-06T22:14:04.994Z,92.14
2022-10-06T22:16:33.583Z,92.13
2022-10-06T22:19:02.556Z,92.19
2022-10-06T22:21:31.913Z,92.02
2022-10-06T22:24:02.620Z,91.91
2022-10-06T22:26:31.240Z,92.22
2022-10-06T22:28:59.060Z,92.33
2022-10-06T22:31:27.039Z,92.28
2022-10-06T22:33:55.989Z,92.43
2022-10-06T22:36:22.764Z,92.38
2022-10-06T22:38:49.164Z,92.21
2022-10-06T22:41:15.962Z,92.71
2022-10-06T22:43:42.517Z,92.51
2022-10-06T22:46:10.891Z,92.64
2022-10-06T22:48:37.914Z,92.76
2022-10-06T22:51:05.286Z,92.73
2022-10-06T22:53:32.012Z,92.44
2022-10-06T22:56:02.651Z,92.39
2022-10-06T22:58:29.336Z,92.37
2022-10-06T23:00:55.853Z,92.65
2022-10-06T23:03:23.083Z,92.51
2022-10-06T23:05:57.289Z,92.73
2022-10-06T23:08:24.064Z,92.56
2022-10-06T23:10:50.791Z,92.56
2022-10-06T23:13:17.556Z,93.02
2022-10-06T23:15:44.023Z,92.99
2022-10-06T23:18:10.885Z,92.97
2022-10-06T23:20:37.364Z,93.18
2022-10-06T23:23:04.243Z,93.56
2022-10-06T23:25:30.656Z,93.58
2022-10-06T23:27:57.104Z,93.55
2022-10-06T23:30:23.601Z,93.69
2022-10-06T23:32:49.988Z,93.43
2022-10-06T23:35:16.432Z,93.72
2022-10-06T23:37:43.049Z,93.64
2022-10-06T23:40:10.210Z,93.87
2022-10-06T23:42:36.638Z,93.78
2022-10-06T23:45:03.102Z,93.47
2022-10-06T23:47:29.511Z,93.79
2022-10-06T23:49:55.877Z,93.77
2022-10-06T23:52:22.480Z,94.06
2022-10-06T23:54:49.560Z,93.79
2022-10-06T23:57:15.954Z,94.19
2022-10-06T23:59:42.341Z,93.99
